Time;durP1;ratioP1;P1;durP2;ratioP2;P2;SDS_P1;SDS_P2;PMS_P1;PMS_P2;Temp;Humidity;BMP_temperature;BMP_pressure;BME280_temperature;BME280_humidity;BME280_pressure;Samples;Min_cycle;Max_cycle;Signal;HPM_P1;HPM_P2
2021/10/07 00:00:10;;;;;;;25.00;16.80;;;;;;;11.98;88.22;99051.88;113404;1200;22550;-87
2021/10/07 00:03:04;;;;;;;24.80;17.30;;;;;;;11.94;88.35;99053.69;113528;1186;25397;-88
2021/10/07 00:05:31;;;;;;;24.80;18.10;;;;;;;11.89;88.34;99050.64;113624;1200;22437;-89
2021/10/07 00:07:57;;;;;;;24.80;17.40;;;;;;;11.86;88.67;99046.84;113343;1196;25064;-89
2021/10/07 00:10:24;;;;;;;24.20;16.10;;;;;;;11.82;88.52;99042.91;113509;1193;22447;-89
2021/10/07 00:12:50;;;;;;;25.40;16.40;;;;;;;11.77;88.53;99048.02;113625;1194;22486;-89
2021/10/07 00:15:17;;;;;;;25.10;17.00;;;;;;;11.75;89.00;99046.44;113736;1199;22504;-88
2021/10/07 00:17:43;;;;;;;25.90;17.30;;;;;;;11.74;89.01;99049.20;113701;1193;24998;-88
2021/10/07 00:20:13;;;;;;;23.10;17.00;;;;;;;11.71;88.84;99047.98;113831;1199;24437;-88
2021/10/07 00:22:41;;;;;;;27.20;18.10;;;;;;;11.69;89.07;99046.07;113751;1193;25030;-87
2021/10/07 00:25:10;;;;;;;25.00;17.40;;;;;;;11.66;89.04;99045.77;113570;1200;22441;-88
2021/10/07 00:27:37;;;;;;;;;;;;;;;11.63;89.12;99049.98;113535;1200;22427;-88
2021/10/07 00:30:21;;;;;;;22.50;16.60;;;;;;;11.63;89.40;99045.16;113494;1201;22442;-86
2021/10/07 00:40:47;;;;;;;23.30;16.90;;;;;;;11.53;89.95;99041.56;113772;1199;22421;-87
2021/10/07 00:43:13;;;;;;;25.30;16.10;;;;;;;11.54;89.78;99043.21;113649;1193;25042;-87
2021/10/07 00:45:40;;;;;;;22.70;17.00;;;;;;;11.54;89.67;99046.02;113396;1201;25007;-87
2021/10/07 00:48:07;;;;;;;23.30;17.10;;;;;;;11.55;89.81;99044.34;113562;1200;25196;-87
2021/10/07 00:50:33;;;;;;;22.80;16.60;;;;;;;11.54;89.67;99045.40;113537;1200;22459;-87
2021/10/07 00:52:59;;;;;;;21.60;14.80;;;;;;;11.55;89.90;99044.87;113587;1193;22500;-87
2021/10/07 00:55:26;;;;;;;22.00;14.90;;;;;;;11.56;89.97;99045.98;113803;1200;25228;-87
2021/10/07 00:57:53;;;;;;;19.80;16.20;;;;;;;11.58;90.00;99049.55;113581;1200;22761;-87
2021/10/07 01:00:19;;;;;;;23.80;15.60;;;;;;;11.59;90.20;99053.49;113591;1200;22471;-88
2021/10/07 01:02:46;;;;;;;25.30;16.50;;;;;;;11.60;90.15;99048.54;113729;1193;23959;-88
2021/10/07 01:05:12;;;;;;;19.60;14.70;;;;;;;11.64;90.12;99054.30;113507;1200;22468;-87
2021/10/07 01:07:40;;;;;;;20.40;14.60;;;;;;;11.67;90.04;99053.17;113432;1201;25119;-87
2021/10/07 01:10:07;;;;;;;20.20;15.00;;;;;;;11.72;90.17;99052.38;113473;1201;22542;-87
2021/10/07 01:12:33;;;;;;;23.30;15.80;;;;;;;11.76;89.89;99056.33;113639;1200;22444;-87
2021/10/07 01:15:00;;;;;;;21.50;16.70;;;;;;;11.79;90.13;99053.60;113460;1193;25254;-87
2021/10/07 01:17:31;;;;;;;20.60;15.00;;;;;;;11.82;90.04;99055.21;113806;1199;22494;-87
2021/10/07 01:20:12;;;;;;;24.30;15.30;;;;;;;11.87;90.17;99054.71;113855;1184;22553;-87
2021/10/07 01:22:39;;;;;;;17.90;14.50;;;;;;;11.89;89.55;99056.73;113767;1200;25124;-85
2021/10/07 01:25:06;;;;;;;20.40;15.90;;;;;;;11.87;89.60;99058.10;113375;1196;24087;-87
2021/10/07 01:27:37;;;;;;;23.20;15.60;;;;;;;11.89;89.68;99059.98;113598;1200;22441;-88
2021/10/07 01:30:08;;;;;;;19.20;15.50;;;;;;;11.95;89.91;99061.55;113552;1200;24174;-87
2021/10/07 01:32:37;;;;;;;18.90;14.50;;;;;;;12.01;90.04;99064.67;113410;1193;22438;-87
2021/10/07 01:35:05;;;;;;;22.50;15.50;;;;;;;12.07;89.64;99066.00;113784;1193;24047;-86
2021/10/07 01:37:32;;;;;;;24.30;16.50;;;;;;;12.10;89.51;99072.69;113934;1199;22395;-88
2021/10/07 01:39:58;;;;;;;23.00;16.20;;;;;;;12.10;89.12;99068.79;113442;1200;25027;-86
2021/10/07 01:42:26;;;;;;;23.10;16.20;;;;;;;12.09;89.04;99066.32;113694;1193;22526;-87
2021/10/07 01:44:53;;;;;;;21.30;15.10;;;;;;;12.07;88.44;99065.67;113611;1200;25110;-86
2021/10/07 01:47:20;;;;;;;21.50;14.70;;;;;;;12.05;88.71;99066.29;113678;1200;22438;-89
2021/10/07 01:49:46;;;;;;;20.80;14.80;;;;;;;12.07;88.55;99068.02;113454;1201;22449;-87
2021/10/07 01:52:12;;;;;;;24.60;16.80;;;;;;;12.06;88.50;99068.88;113425;1201;22944;-86
2021/10/07 01:54:38;;;;;;;22.00;15.60;;;;;;;12.08;88.90;99068.03;113466;1194;22441;-86
2021/10/07 01:57:05;;;;;;;20.50;15.10;;;;;;;12.12;88.99;99066.94;113509;1200;25197;-89
2021/10/07 01:59:31;;;;;;;20.20;14.30;;;;;;;12.17;88.85;99068.79;113543;1200;24063;-89
2021/10/07 02:01:57;;;;;;;25.70;15.70;;;;;;;12.18;88.51;99072.55;113544;1200;25051;-86
2021/10/07 02:04:24;;;;;;;23.00;17.10;;;;;;;12.19;88.58;99073.14;113421;1196;24043;-89
2021/10/07 02:06:50;;;;;;;21.40;16.10;;;;;;;12.21;88.48;99071.70;113442;1201;22447;-87
2021/10/07 02:09:16;;;;;;;23.10;16.60;;;;;;;12.21;88.20;99069.96;113403;1196;23828;-87
2021/10/07 02:11:42;;;;;;;21.60;14.50;;;;;;;12.20;87.99;99071.36;113481;1200;25051;-87
2021/10/07 02:14:08;;;;;;;19.70;15.30;;;;;;;12.17;87.69;99069.55;113565;1193;24156;-87
2021/10/07 02:16:35;;;;;;;23.60;15.60;;;;;;;12.13;88.07;99068.05;113732;1199;25086;-87
2021/10/07 02:19:01;;;;;;;23.00;16.40;;;;;;;12.17;88.33;99070.47;113776;1200;24170;-87
2021/10/07 02:21:28;;;;;;;19.50;15.00;;;;;;;12.18;88.44;99072.67;113463;1200;25006;-87
2021/10/07 02:23:54;;;;;;;21.30;16.10;;;;;;;12.20;88.23;99074.52;113401;1200;22454;-87
2021/10/07 02:26:21;;;;;;;21.10;16.70;;;;;;;12.19;88.14;99079.79;113564;1192;25048;-88
2021/10/07 02:28:47;;;;;;;28.00;17.10;;;;;;;12.19;88.10;99079.24;113429;1200;22448;-88
2021/10/07 02:31:14;;;;;;;24.50;18.30;;;;;;;12.18;87.94;99080.15;113489;1200;22444;-87
2021/10/07 02:33:40;;;;;;;25.40;17.10;;;;;;;12.15;87.86;99084.79;113545;1200;22730;-87
2021/10/07 02:36:06;;;;;;;22.50;16.00;;;;;;;12.13;88.04;99079.67;113734;1193;22441;-87
2021/10/07 02:38:33;;;;;;;22.30;16.20;;;;;;;12.16;88.09;99081.92;113492;1199;22667;-86
2021/10/07 02:40:59;;;;;;;25.30;17.10;;;;;;;12.14;88.12;99085.00;113850;1199;22436;-87
2021/10/07 02:43:25;;;;;;;25.10;17.50;;;;;;;12.13;88.13;99081.33;113398;1200;24044;-87
2021/10/07 02:45:53;;;;;;;23.50;17.70;;;;;;;12.10;88.01;99079.61;113641;1200;22722;-87
2021/10/07 02:48:20;;;;;;;22.20;15.70;;;;;;;12.06;87.84;99079.58;113684;1200;24024;-86
2021/10/07 02:50:46;;;;;;;21.60;15.60;;;;;;;11.98;87.97;99083.60;113535;1200;24172;-87
2021/10/07 02:53:12;;;;;;;26.60;18.00;;;;;;;11.95;88.16;99089.82;113450;1201;22462;-86
2021/10/07 02:55:38;;;;;;;25.30;16.90;;;;;;;11.96;88.25;99091.02;113460;1193;22532;-86
2021/10/07 02:58:05;;;;;;;25.30;18.00;;;;;;;11.95;88.39;99094.35;113389;1201;22443;-86
2021/10/07 03:00:31;;;;;;;23.10;17.60;;;;;;;11.88;88.07;99092.31;113590;1200;22447;-87
2021/10/07 03:02:57;;;;;;;21.40;16.80;;;;;;;11.81;88.30;99087.61;113533;1200;24110;-86
2021/10/07 03:05:24;;;;;;;26.40;16.90;;;;;;;11.75;88.23;99088.77;113447;1193;24247;-87
2021/10/07 03:07:50;;;;;;;23.50;16.90;;;;;;;11.71;88.79;99090.55;113748;1200;22438;-86
2021/10/07 03:10:17;;;;;;;25.80;18.90;;;;;;;11.69;88.54;99089.96;113898;1200;22439;-86
2021/10/07 03:12:44;;;;;;;28.20;18.60;;;;;;;11.69;88.93;99098.23;113826;1193;22495;-87
2021/10/07 03:15:11;;;;;;;28.80;18.80;;;;;;;11.71;89.63;99097.48;113783;1200;22429;-86
2021/10/07 03:17:37;;;;;;;24.20;17.10;;;;;;;11.78;89.55;99104.63;113505;1193;24077;-86
2021/10/07 03:20:07;;;;;;;30.40;18.50;;;;;;;11.86;89.83;99105.58;113542;1193;22494;-87
2021/10/07 03:22:34;;;;;;;30.10;21.00;;;;;;;11.91;89.39;99108.07;113576;1200;22444;-87
2021/10/07 03:25:00;;;;;;;35.80;22.20;;;;;;;11.95;89.48;99108.27;113496;1201;25213;-87
2021/10/07 03:27:27;;;;;;;32.70;21.50;;;;;;;11.98;89.61;99107.61;113526;1193;25136;-86
2021/10/07 03:29:53;;;;;;;37.40;22.60;;;;;;;12.02;89.34;99114.69;113585;1194;22548;-87
2021/10/07 03:32:19;;;;;;;42.60;22.30;;;;;;;12.01;88.98;99109.88;113507;1200;23829;-87
2021/10/07 03:34:45;;;;;;;40.50;24.10;;;;;;;12.02;89.20;99112.63;113563;1200;22734;-86
2021/10/07 03:37:12;;;;;;;43.60;25.00;;;;;;;12.05;89.22;99112.02;113452;1193;22563;-86
2021/10/07 03:39:38;;;;;;;38.00;23.30;;;;;;;12.07;88.99;99112.45;113441;1193;22446;-87
2021/10/07 03:42:04;;;;;;;36.60;21.50;;;;;;;12.05;89.15;99114.71;113387;1201;22451;-87
2021/10/07 03:44:30;;;;;;;35.50;22.30;;;;;;;12.07;89.24;99118.91;113377;1201;22555;-87
2021/10/07 03:46:57;;;;;;;36.80;22.60;;;;;;;12.10;89.41;99116.69;113681;1193;24053;-87
2021/10/07 03:49:23;;;;;;;38.90;23.50;;;;;;;12.12;89.17;99121.55;113820;1187;24085;-86
2021/10/07 03:51:49;;;;;;;40.70;24.30;;;;;;;12.12;89.08;99124.06;113768;1200;22440;-86
2021/10/07 03:54:16;;;;;;;37.50;23.50;;;;;;;12.16;89.24;99124.50;113777;1200;22510;-86
2021/10/07 03:56:42;;;;;;;36.70;22.30;;;;;;;12.20;89.06;99127.38;113696;1199;22391;-86
2021/10/07 03:59:08;;;;;;;38.30;22.00;;;;;;;12.24;89.01;99135.11;113517;1200;25060;-87
2021/10/07 04:01:36;;;;;;;34.50;23.50;;;;;;;12.27;88.79;99136.35;113602;1200;24101;-86
2021/10/07 04:04:02;;;;;;;42.40;25.00;;;;;;;12.29;88.98;99137.90;113602;1200;23664;-87
2021/10/07 04:06:28;;;;;;;39.40;24.80;;;;;;;12.30;89.09;99138.64;113535;1192;22726;-87
2021/10/07 04:08:54;;;;;;;35.00;23.20;;;;;;;12.32;88.98;99143.65;113765;1200;22432;-87
2021/10/07 04:11:20;;;;;;;41.80;25.30;;;;;;;12.33;88.77;99146.91;113840;1200;22560;-87
2021/10/07 04:13:50;;;;;;;43.40;26.00;;;;;;;12.32;88.48;99148.53;113896;1193;22434;-86
2021/10/07 04:16:16;;;;;;;47.70;28.70;;;;;;;12.29;88.47;99148.78;113776;1193;22439;-86
2021/10/07 04:18:44;;;;;;;47.50;28.50;;;;;;;12.26;88.32;99150.52;113575;1200;22466;-87
2021/10/07 04:21:11;;;;;;;49.00;28.70;;;;;;;12.21;88.32;99152.80;113494;1200;22727;-87
2021/10/07 04:23:38;;;;;;;49.30;28.50;;;;;;;12.18;88.27;99157.27;113267;1201;25142;-87
2021/10/07 04:26:06;;;;;;;45.80;27.50;;;;;;;12.17;88.67;99157.64;113482;1201;25054;-87
2021/10/07 04:28:34;;;;;;;47.80;26.60;;;;;;;12.18;88.95;99161.47;113633;1193;25044;-87
2021/10/07 04:31:00;;;;;;;41.60;25.00;;;;;;;12.20;89.29;99163.12;113534;1200;24284;-87
2021/10/07 04:33:26;;;;;;;40.60;24.30;;;;;;;12.23;89.02;99160.35;113558;1188;23771;-87
2021/10/07 04:35:52;;;;;;;34.00;23.40;;;;;;;12.25;89.14;99161.70;113467;1193;24173;-87
2021/10/07 04:38:19;;;;;;;35.40;24.20;;;;;;;12.25;88.99;99165.89;113374;1194;22430;-87
2021/10/07 04:41:00;;;;;;;37.70;23.80;;;;;;;12.25;88.88;99164.09;113334;1202;22424;-87
2021/10/07 04:43:26;;;;;;;35.10;22.10;;;;;;;12.22;88.69;99163.48;113426;1194;22541;-87
2021/10/07 04:45:52;;;;;;;31.90;21.30;;;;;;;12.21;88.95;99162.10;113479;1201;24066;-87
2021/10/07 04:48:18;;;;;;;31.90;21.50;;;;;;;12.20;88.67;99167.31;113475;1194;22438;-88
2021/10/07 04:50:44;;;;;;;38.20;23.20;;;;;;;12.20;88.82;99167.58;113509;1200;24142;-87
2021/10/07 04:53:11;;;;;;;34.70;22.20;;;;;;;12.17;88.69;99171.23;113532;1200;23804;-87
2021/10/07 04:55:37;;;;;;;36.00;23.50;;;;;;;12.14;88.65;99168.31;113541;1200;24044;-88
2021/10/07 04:58:03;;;;;;;30.30;20.70;;;;;;;12.14;88.95;99177.50;113687;1193;22849;-88
2021/10/07 05:00:29;;;;;;;37.40;22.00;;;;;;;12.16;89.11;99180.55;113469;1201;22445;-87
2021/10/07 05:03:10;;;;;;;33.00;21.40;;;;;;;12.18;88.94;99181.39;113372;1201;25172;-87
2021/10/07 05:05:36;;;;;;;37.90;23.20;;;;;;;12.19;88.81;99178.69;113474;1201;24067;-87
2021/10/07 05:08:03;;;;;;;33.60;21.70;;;;;;;12.20;88.94;99176.77;113449;1192;22434;-88
2021/10/07 05:10:29;;;;;;;31.60;21.00;;;;;;;12.23;89.04;99180.10;113494;1185;25330;-87
2021/10/07 05:12:55;;;;;;;33.40;21.80;;;;;;;12.26;88.79;99183.18;113771;1200;25235;-88
2021/10/07 05:15:22;;;;;;;36.20;22.70;;;;;;;12.25;88.57;99185.34;113756;1200;22948;-87
2021/10/07 05:17:51;;;;;;;34.60;23.30;;;;;;;12.21;88.63;99184.70;113897;1194;23798;-88
2021/10/07 05:20:32;;;;;;;34.40;22.90;;;;;;;12.19;88.84;99188.60;113428;1201;22962;-88
2021/10/07 05:22:59;;;;;;;34.40;24.10;;;;;;;12.19;89.04;99190.81;113455;1200;22418;-88
2021/10/07 05:25:25;;;;;;;37.90;23.20;;;;;;;12.19;88.77;99192.17;113584;1201;22451;-87
2021/10/07 05:27:51;;;;;;;35.10;23.60;;;;;;;12.13;88.41;99197.02;113537;1200;22559;-87
2021/10/07 05:30:17;;;;;;;31.60;21.60;;;;;;;12.06;88.42;99199.16;113753;1200;22447;-88
2021/10/07 05:32:58;;;;;;;26.90;20.70;;;;;;;11.98;88.16;99196.89;113838;1200;22487;-88
2021/10/07 05:35:25;;;;;;;30.50;21.20;;;;;;;11.91;88.33;99198.52;113388;1200;22428;-88
2021/10/07 05:37:51;;;;;;;24.80;18.40;;;;;;;11.88;88.33;99199.85;113771;1200;24219;-88
2021/10/07 05:40:17;;;;;;;29.00;18.60;;;;;;;11.85;88.36;99196.70;113476;1200;31705;-87
2021/10/07 05:42:44;;;;;;;28.80;19.20;;;;;;;11.84;88.53;99195.68;113524;1200;25168;-87
2021/10/07 05:45:10;;;;;;;26.70;19.70;;;;;;;11.84;88.58;99199.23;113512;1200;25171;-87
2021/10/07 05:47:51;;;;;;;25.90;18.80;;;;;;;11.82;88.55;99199.89;113475;1200;22460;-87
2021/10/07 05:50:18;;;;;;;25.70;17.50;;;;;;;11.83;88.89;99199.71;113686;1192;31428;-88
2021/10/07 05:52:44;;;;;;;22.10;16.80;;;;;;;11.86;88.93;99205.17;113510;1200;24092;-88
2021/10/07 05:55:10;;;;;;;24.90;18.20;;;;;;;11.87;88.69;99206.46;113623;1199;23937;-87
2021/10/07 05:57:37;;;;;;;24.70;18.90;;;;;;;11.84;88.54;99210.31;113750;1200;24052;-87
2021/10/07 06:00:08;;;;;;;25.70;18.20;;;;;;;11.81;88.29;99208.41;113573;1196;22720;-87
2021/10/07 06:02:38;;;;;;;24.00;18.30;;;;;;;11.82;88.67;99210.98;113393;1200;24189;-87
2021/10/07 06:05:06;;;;;;;24.70;17.60;;;;;;;11.84;88.72;99212.13;113860;1193;25044;-88
2021/10/07 06:07:33;;;;;;;22.80;17.60;;;;;;;11.86;88.64;99209.61;113959;1200;25023;-87
2021/10/07 06:10:00;;;;;;;23.40;18.30;;;;;;;11.90;88.70;99206.88;113916;1193;25010;-88
2021/10/07 06:12:26;;;;;;;26.40;18.40;;;;;;;11.92;88.27;99207.48;113834;1200;24259;-87
2021/10/07 06:14:53;;;;;;;27.30;19.90;;;;;;;11.94;88.24;99208.20;113602;1200;22436;-87
2021/10/07 06:17:19;;;;;;;26.40;18.90;;;;;;;11.97;88.21;99207.98;113860;1199;22460;-87
2021/10/07 06:19:47;;;;;;;22.90;17.70;;;;;;;11.97;87.73;99209.98;113792;1193;25390;-87
2021/10/07 06:22:14;;;;;;;25.90;18.10;;;;;;;11.96;87.67;99213.02;113541;1200;23753;-87
2021/10/07 06:24:56;;;;;;;25.90;18.20;;;;;;;12.00;87.91;99218.16;113716;1200;24174;-87
2021/10/07 06:27:23;;;;;;;25.30;19.10;;;;;;;12.02;87.77;99217.86;113592;1200;22439;-87
2021/10/07 06:29:50;;;;;;;26.90;20.10;;;;;;;12.02;87.67;99219.67;113684;1200;24110;-87
2021/10/07 06:32:31;;;;;;;23.60;17.90;;;;;;;12.03;87.84;99223.27;113872;1199;22443;-87
2021/10/07 06:34:57;;;;;;;25.70;17.70;;;;;;;12.06;88.03;99221.00;113976;1200;22583;-86
2021/10/07 06:37:23;;;;;;;24.40;17.90;;;;;;;12.08;87.53;99221.16;113870;1200;23846;-87
2021/10/07 06:39:50;;;;;;;29.60;19.10;;;;;;;12.10;87.65;99222.45;114003;1193;22443;-87
2021/10/07 06:42:16;;;;;;;33.30;20.00;;;;;;;12.10;87.71;99229.17;113567;1200;25165;-87
2021/10/07 06:44:42;;;;;;;25.80;18.80;;;;;;;12.11;88.04;99229.09;113546;1201;23098;-90
2021/10/07 06:47:08;;;;;;;26.00;18.50;;;;;;;12.13;87.66;99232.02;113597;1200;22469;-87
2021/10/07 06:49:35;;;;;;;24.20;18.20;;;;;;;12.13;87.59;99241.30;113762;1200;22480;-87
2021/10/07 06:52:03;;;;;;;28.30;20.30;;;;;;;12.13;87.44;99239.77;113522;1201;22428;-87
2021/10/07 06:54:44;;;;;;;30.20;20.90;;;;;;;12.09;87.49;99236.90;113723;1200;22430;-87
2021/10/07 06:57:24;;;;;;;31.70;21.30;;;;;;;12.03;86.86;99237.23;113902;1200;23045;-86
2021/10/07 07:00:08;;;;;;;31.10;20.30;;;;;;;11.96;87.23;99233.84;113643;1200;22449;-86
2021/10/07 07:02:35;;;;;;;;;;;;;;;11.91;87.01;99234.25;113567;1201;22444;-87
2021/10/07 07:05:16;;;;;;;31.70;20.20;;;;;;;11.87;87.08;99238.95;113453;1201;25244;-87
2021/10/07 07:07:57;;;;;;;38.10;21.00;;;;;;;11.83;87.16;99242.33;113507;1201;23787;-87
2021/10/07 07:10:23;;;;;;;29.50;19.60;;;;;;;11.78;86.93;99249.75;113558;1193;23105;-88
2021/10/07 07:12:51;;;;;;;31.30;21.00;;;;;;;11.72;87.23;99255.80;113900;1200;24706;-87
2021/10/07 07:15:19;;;;;;;30.80;18.30;;;;;;;11.69;87.44;99255.52;113669;1200;23985;-87
2021/10/07 07:17:45;;;;;;;27.00;17.20;;;;;;;11.67;87.44;99261.24;113928;1193;24046;-87
2021/10/07 07:20:26;;;;;;;30.20;18.00;;;;;;;11.69;87.67;99261.78;113813;1193;22470;-87
2021/10/07 07:22:52;;;;;;;31.20;17.10;;;;;;;11.68;87.30;99264.72;113499;1200;24158;-87
2021/10/07 07:25:19;;;;;;;30.70;18.90;;;;;;;11.70;87.37;99266.62;113645;1200;24050;-87
2021/10/07 07:27:45;;;;;;;28.80;17.50;;;;;;;11.71;87.24;99267.40;113590;1200;24100;-87
2021/10/07 07:30:12;;;;;;;28.00;15.70;;;;;;;11.72;87.13;99268.61;113654;1193;24190;-87
2021/10/07 07:32:39;;;;;;;23.40;15.30;;;;;;;11.73;86.90;99270.07;113522;1200;24727;-87
2021/10/07 07:35:05;;;;;;;25.40;17.10;;;;;;;11.71;86.53;99272.90;113901;1187;22423;-86
2021/10/07 07:37:32;;;;;;;27.70;17.60;;;;;;;11.70;86.74;99274.90;113574;1200;22565;-87
2021/10/07 07:39:58;;;;;;;26.30;16.90;;;;;;;11.68;86.59;99281.52;113597;1193;22555;-88
2021/10/07 07:42:24;;;;;;;25.00;16.10;;;;;;;11.70;86.84;99282.16;113709;1193;25120;-87
2021/10/07 07:44:50;;;;;;;25.20;16.40;;;;;;;11.77;86.93;99283.77;113650;1199;24263;-87
2021/10/07 07:47:17;;;;;;;24.00;16.70;;;;;;;11.85;86.92;99284.08;113859;1199;24214;-87
2021/10/07 07:49:58;;;;;;;33.30;17.70;;;;;;;11.90;86.97;99283.10;113775;1177;22429;-88
2021/10/07 07:52:24;;;;;;;25.80;16.10;;;;;;;11.99;86.96;99288.23;113618;1193;22433;-88
2021/10/07 07:54:50;;;;;;;24.50;15.10;;;;;;;12.04;86.62;99285.02;113844;1199;22450;-87
2021/10/07 07:57:17;;;;;;;25.60;15.60;;;;;;;12.09;86.79;99285.17;113859;1199;24143;-87
2021/10/07 07:59:43;;;;;;;25.00;15.90;;;;;;;12.18;86.43;99291.06;113893;1199;22432;-87
2021/10/07 08:02:14;;;;;;;23.30;15.80;;;;;;;12.26;86.25;99294.05;113565;1193;22467;-87
2021/10/07 08:04:56;;;;;;;24.40;15.90;;;;;;;12.33;86.11;99296.41;113538;1201;22442;-87
2021/10/07 08:07:22;;;;;;;22.40;14.60;;;;;;;12.40;86.27;99298.11;113467;1201;24052;-87
2021/10/07 08:09:48;;;;;;;18.90;14.50;;;;;;;12.48;85.69;99302.89;113623;1200;22501;-87
2021/10/07 08:12:16;;;;;;;23.10;16.00;;;;;;;12.51;85.41;99301.05;113578;1201;22484;-87
2021/10/07 08:14:45;;;;;;;23.80;15.80;;;;;;;12.59;85.52;99300.64;113707;1199;22536;-87
2021/10/07 08:17:12;;;;;;;26.80;15.60;;;;;;;12.68;85.79;99296.73;113541;1201;22434;-87
2021/10/07 08:19:39;;;;;;;18.80;14.60;;;;;;;12.76;85.46;99299.65;113686;1199;24027;-86
2021/10/07 08:22:06;;;;;;;22.30;15.20;;;;;;;12.83;85.00;99302.33;113736;1194;22594;-86
2021/10/07 08:24:33;;;;;;;21.20;15.90;;;;;;;12.89;84.79;99304.38;113607;1200;25154;-86
2021/10/07 08:27:00;;;;;;;23.00;15.90;;;;;;;12.93;84.64;99306.91;113682;1200;25144;-88
2021/10/07 08:29:27;;;;;;;21.90;15.40;;;;;;;13.01;85.08;99308.30;113749;1200;22443;-86
2021/10/07 08:31:53;;;;;;;22.00;14.80;;;;;;;13.10;84.84;99307.41;113691;1193;22427;-86
2021/10/07 08:34:20;;;;;;;20.40;14.80;;;;;;;13.14;83.59;99305.95;113901;1199;22539;-85
2021/10/07 08:36:46;;;;;;;25.30;16.00;;;;;;;13.18;83.90;99311.73;113829;1199;22454;-86
2021/10/07 08:39:15;;;;;;;26.70;16.90;;;;;;;13.19;83.51;99311.42;113957;1193;25254;-86
2021/10/07 08:41:56;;;;;;;24.10;17.30;;;;;;;13.14;82.93;99309.78;113558;1200;22444;-87
2021/10/07 08:44:23;;;;;;;23.30;16.00;;;;;;;13.09;82.68;99311.31;113563;1200;22440;-87
2021/10/07 08:46:52;;;;;;;20.80;15.90;;;;;;;13.07;83.16;99310.73;113539;1193;22419;-87
2021/10/07 08:49:22;;;;;;;23.00;16.70;;;;;;;13.09;83.14;99308.73;113569;1201;26495;-87
2021/10/07 08:51:49;;;;;;;30.50;18.30;;;;;;;13.09;82.69;99312.87;113373;1202;23762;-86
2021/10/07 08:54:16;;;;;;;26.20;19.90;;;;;;;13.10;83.18;99311.45;113327;1201;24170;-86
2021/10/07 08:56:43;;;;;;;26.30;18.30;;;;;;;13.14;83.44;99307.10;113723;1200;22423;-86
2021/10/07 08:59:09;;;;;;;22.40;17.10;;;;;;;13.19;83.38;99305.78;113749;1199;24093;-87
2021/10/07 09:01:45;;;;;;;28.20;19.40;;;;;;;13.24;82.96;99306.34;113904;1199;25111;-87
2021/10/07 09:04:29;;;;;;;29.50;19.20;;;;;;;13.27;82.74;99307.49;113598;1193;32426;-86
2021/10/07 09:07:07;;;;;;;30.30;20.20;;;;;;;13.35;82.94;99311.17;113682;1200;22832;-85
2021/10/07 09:09:41;;;;;;;29.80;20.70;;;;;;;13.41;82.53;99309.01;113766;1200;22447;-86
2021/10/07 09:12:13;;;;;;;28.70;19.30;;;;;;;13.45;82.23;99312.81;113542;1200;22632;-87
2021/10/07 09:14:55;;;;;;;20.70;16.50;;;;;;;13.49;81.67;99309.64;113556;1193;30787;-86
2021/10/07 09:17:21;;;;;;;29.40;19.60;;;;;;;13.53;80.72;99311.04;113948;1199;23986;-84
2021/10/07 09:19:49;;;;;;;26.60;19.80;;;;;;;13.61;81.78;99315.11;113846;1199;25126;-82
2021/10/07 09:22:21;;;;;;;22.50;16.80;;;;;;;13.77;81.77;99310.14;113892;1199;25095;-84
2021/10/07 09:24:53;;;;;;;24.70;17.00;;;;;;;13.91;80.78;99312.27;113840;1199;24154;-90
2021/10/07 09:27:25;;;;;;;23.40;18.00;;;;;;;14.09;81.11;99313.07;113542;1201;22432;-83
2021/10/07 09:30:06;;;;;;;31.50;19.50;;;;;;;14.19;80.24;99313.97;113928;1199;22533;-83
2021/10/07 09:32:48;;;;;;;25.10;18.40;;;;;;;14.20;79.99;99313.31;113901;1199;22864;-85
2021/10/07 09:35:17;;;;;;;22.70;16.50;;;;;;;14.22;79.28;99316.36;113849;1193;24288;-84
2021/10/07 09:37:46;;;;;;;26.60;16.80;;;;;;;14.21;78.59;99312.74;113909;1199;22762;-83
2021/10/07 09:40:27;;;;;;;24.70;15.20;;;;;;;14.37;79.41;99315.85;114066;1199;25003;-85
2021/10/07 09:42:56;;;;;;;23.20;16.70;;;;;;;14.58;78.81;99314.67;113875;1193;22692;-84
2021/10/07 09:45:30;;;;;;;18.90;16.30;;;;;;;14.76;79.10;99315.99;113924;1192;22706;-84
2021/10/07 09:47:59;;;;;;;22.30;16.60;;;;;;;14.85;77.77;99315.25;113788;1199;25126;-84
2021/10/07 09:50:41;;;;;;;;;;;;;;;14.87;78.02;99316.05;113845;1199;24040;-84
2021/10/07 09:53:11;;;;;;;19.40;15.40;;;;;;;14.91;78.18;99320.23;113557;1199;22440;-84
2021/10/07 09:55:43;;;;;;;22.80;16.40;;;;;;;14.99;78.16;99322.59;113836;1193;23746;-84
2021/10/07 09:58:25;;;;;;;27.40;15.90;;;;;;;15.16;77.90;99317.83;113865;1184;24027;-84
2021/10/07 10:00:56;;;;;;;20.30;15.80;;;;;;;15.35;77.79;99315.50;113945;1199;25132;-84
2021/10/07 10:03:24;;;;;;;20.60;14.80;;;;;;;15.50;77.68;99312.77;113938;1199;25097;-84
2021/10/07 10:05:52;;;;;;;23.40;15.30;;;;;;;15.62;77.25;99317.13;113579;1196;23422;-84
2021/10/07 10:08:21;;;;;;;17.70;13.50;;;;;;;15.66;77.12;99319.16;113494;1201;24199;-84
2021/10/07 10:10:51;;;;;;;19.30;12.70;;;;;;;15.70;76.23;99324.48;113647;1201;24202;-84
2021/10/07 10:13:18;;;;;;;22.20;14.70;;;;;;;15.73;75.65;99320.79;113498;1201;24127;-84
2021/10/07 10:15:45;;;;;;;24.60;13.60;;;;;;;15.75;74.56;99322.09;113629;1193;22470;-84
2021/10/07 10:18:13;;;;;;;19.40;13.10;;;;;;;15.69;74.49;99321.23;113506;1193;25041;-84
2021/10/07 10:20:51;;;;;;;22.30;13.40;;;;;;;15.63;73.52;99319.52;113398;1188;22588;-85
2021/10/07 10:23:21;;;;;;;20.90;13.20;;;;;;;15.56;74.07;99320.97;113504;1200;24135;-85
2021/10/07 10:25:55;;;;;;;18.50;13.50;;;;;;;15.60;73.81;99317.06;113442;1196;23794;-85
2021/10/07 10:28:50;;;;;;;18.50;13.30;;;;;;;15.74;74.84;99315.21;113793;1199;25523;-85
2021/10/07 10:31:40;;;;;;;18.10;13.20;;;;;;;15.91;73.69;99305.27;113766;1199;22876;-85
2021/10/07 10:34:08;;;;;;;20.70;12.20;;;;;;;15.96;72.37;99302.48;113999;1199;25126;-85
2021/10/07 10:36:39;;;;;;;18.10;12.10;;;;;;;16.00;72.46;99304.81;113828;1193;22450;-85
2021/10/07 10:39:19;;;;;;;15.80;12.10;;;;;;;16.09;72.73;99306.12;113735;1199;22533;-85
2021/10/07 10:41:57;;;;;;;15.00;11.70;;;;;;;16.32;72.98;99309.79;113807;1199;22475;-85
2021/10/07 10:44:26;;;;;;;15.00;12.60;;;;;;;16.52;72.90;99302.80;113682;1177;22416;-85
2021/10/07 10:47:04;;;;;;;;;;;;;;;16.71;72.19;99303.15;113878;1193;24788;-84
2021/10/07 10:49:57;;;;;;;16.20;12.30;;;;;;;16.67;69.74;99303.20;113800;1199;24061;-85
2021/10/07 10:52:29;;;;;;;16.80;10.70;;;;;;;16.50;70.25;99308.40;113889;1199;22440;-85
2021/10/07 10:54:58;;;;;;;14.40;9.90;;;;;;;16.43;70.94;99310.20;114019;1193;24119;-85
2021/10/07 10:57:32;;;;;;;14.80;11.30;;;;;;;16.42;70.89;99311.19;113775;1187;24046;-85
2021/10/07 11:00:08;;;;;;;12.20;9.70;;;;;;;16.54;71.00;99309.30;113569;1199;22452;-85
2021/10/07 11:02:36;;;;;;;12.80;10.40;;;;;;;16.64;70.37;99305.64;113568;1194;22436;-85
2021/10/07 11:05:29;;;;;;;16.10;11.00;;;;;;;16.77;69.65;99304.96;113612;1184;25141;-84
2021/10/07 11:08:16;;;;;;;16.40;11.60;;;;;;;16.75;68.52;99307.14;113666;1200;25110;-83
2021/10/07 11:10:54;;;;;;;14.60;11.70;;;;;;;16.65;69.38;99307.07;113855;1184;22422;-86
2021/10/07 11:13:20;;;;;;;17.40;11.90;;;;;;;16.58;68.91;99303.23;113730;1199;24019;-87
2021/10/07 11:15:49;;;;;;;17.30;11.40;;;;;;;16.57;68.39;99300.20;113693;1187;24062;-86
2021/10/07 11:18:16;;;;;;;14.50;11.50;;;;;;;16.60;67.52;99302.86;113654;1192;24102;-86
2021/10/07 11:20:42;;;;;;;12.90;10.70;;;;;;;16.61;67.74;99297.81;113772;1187;25083;-86
2021/10/07 11:23:17;;;;;;;14.70;9.40;;;;;;;16.66;67.96;99294.43;113372;1201;22460;-85
2021/10/07 11:25:46;;;;;;;15.50;9.70;;;;;;;16.70;66.46;99292.75;113600;1193;24971;-86